sensor_id;sensor_type;location;lat;lon;timestamp;pressure;altitude;pressure_sealevel;temperature;humidity
43553;BME280;29153;42.696;23.218;2022-07-29T00:01:54;94677.11;;;16.94;100.00
43553;BME280;29153;42.696;23.218;2022-07-29T00:04:21;94680.00;;;16.95;100.00
43553;BME280;29153;42.696;23.218;2022-07-29T00:06:49;94679.70;;;16.96;100.00
43553;BME280;29153;42.696;23.218;2022-07-29T00:09:17;94679.37;;;16.89;99.72
43553;BME280;29153;42.696;23.218;2022-07-29T00:11:44;94675.95;;;16.86;99.99
43553;BME280;29153;42.696;23.218;2022-07-29T00:14:12;94667.50;;;16.81;100.00
43553;BME280;29153;42.696;23.218;2022-07-29T00:16:39;94661.20;;;16.77;100.00
43553;BME280;29153;42.696;23.218;2022-07-29T00:19:07;94661.61;;;16.82;100.00
43553;BME280;29153;42.696;23.218;2022-07-29T00:21:35;94653.50;;;16.76;100.00
43553;BME280;29153;42.696;23.218;2022-07-29T00:24:02;94659.48;;;16.81;100.00
43553;BME280;29153;42.696;23.218;2022-07-29T00:26:30;94666.49;;;16.80;100.00
43553;BME280;29153;42.696;23.218;2022-07-29T00:29:03;94664.12;;;16.78;100.00
43553;BME280;29153;42.696;23.218;2022-07-29T00:31:30;94661.78;;;16.66;100.00
43553;BME280;29153;42.696;23.218;2022-07-29T00:33:58;94665.79;;;16.66;100.00
43553;BME280;29153;42.696;23.218;2022-07-29T00:36:26;94669.80;;;16.66;100.00
43553;BME280;29153;42.696;23.218;2022-07-29T00:38:53;94678.08;;;16.67;100.00
43553;BME280;29153;42.696;23.218;2022-07-29T00:41:21;94678.00;;;16.69;100.00
43553;BME280;29153;42.696;23.218;2022-07-29T00:43:49;94685.02;;;16.68;100.00
43553;BME280;29153;42.696;23.218;2022-07-29T00:46:16;94683.30;;;16.61;100.00
43553;BME280;29153;42.696;23.218;2022-07-29T00:48:44;94676.32;;;16.51;100.00
43553;BME280;29153;42.696;23.218;2022-07-29T00:51:12;94674.56;;;16.58;100.00
43553;BME280;29153;42.696;23.218;2022-07-29T00:53:42;94671.27;;;16.61;100.00
43553;BME280;29153;42.696;23.218;2022-07-29T00:56:09;94676.32;;;16.62;100.00
43553;BME280;29153;42.696;23.218;2022-07-29T00:58:37;94679.17;;;16.55;100.00
43553;BME280;29153;42.696;23.218;2022-07-29T01:01:06;94675.28;;;16.50;100.00
43553;BME280;29153;42.696;23.218;2022-07-29T01:03:33;94667.13;;;16.44;100.00
43553;BME280;29153;42.696;23.218;2022-07-29T01:06:01;94655.34;;;16.45;100.00
43553;BME280;29153;42.696;23.218;2022-07-29T01:08:28;94650.00;;;16.45;100.00
43553;BME280;29153;42.696;23.218;2022-07-29T01:10:57;94642.52;;;16.44;100.00
43553;BME280;29153;42.696;23.218;2022-07-29T01:13:26;94646.06;;;16.42;100.00
43553;BME280;29153;42.696;23.218;2022-07-29T01:16:03;94648.24;;;16.40;100.00
43553;BME280;29153;42.696;23.218;2022-07-29T01:18:42;94647.23;;;16.38;100.00
43553;BME280;29153;42.696;23.218;2022-07-29T01:21:31;94645.31;;;16.39;100.00
43553;BME280;29153;42.696;23.218;2022-07-29T01:29:23;94647.72;;;16.18;100.00
43553;BME280;29153;42.696;23.218;2022-07-29T01:32:08;94644.89;;;16.04;100.00
43553;BME280;29153;42.696;23.218;2022-07-29T01:34:54;94642.26;;;16.01;100.00
43553;BME280;29153;42.696;23.218;2022-07-29T01:40:34;94643.59;;;16.01;100.00
43553;BME280;29153;42.696;23.218;2022-07-29T01:42:48;94644.94;;;15.90;100.00
43553;BME280;29153;42.696;23.218;2022-07-29T01:48:13;94641.91;;;15.94;100.00
43553;BME280;29153;42.696;23.218;2022-07-29T01:50:46;94640.94;;;15.90;100.00
43553;BME280;29153;42.696;23.218;2022-07-29T01:53:25;94636.31;;;15.82;100.00
43553;BME280;29153;42.696;23.218;2022-07-29T01:55:52;94637.05;;;15.74;100.00
43553;BME280;29153;42.696;23.218;2022-07-29T01:58:21;94634.16;;;15.70;100.00
43553;BME280;29153;42.696;23.218;2022-07-29T02:00:50;94636.18;;;15.76;100.00
43553;BME280;29153;42.696;23.218;2022-07-29T02:03:19;94632.89;;;15.79;100.00
43553;BME280;29153;42.696;23.218;2022-07-29T02:05:48;94626.89;;;15.84;100.00
43553;BME280;29153;42.696;23.218;2022-07-29T02:08:19;94623.20;;;15.94;100.00
43553;BME280;29153;42.696;23.218;2022-07-29T02:10:49;94618.16;;;16.04;100.00
43553;BME280;29153;42.696;23.218;2022-07-29T02:13:17;94617.97;;;16.11;100.00
43553;BME280;29153;42.696;23.218;2022-07-29T02:15:48;94613.30;;;16.17;100.00
43553;BME280;29153;42.696;23.218;2022-07-29T02:18:17;94624.62;;;16.22;100.00
43553;BME280;29153;42.696;23.218;2022-07-29T02:20:48;94615.69;;;16.27;100.00
43553;BME280;29153;42.696;23.218;2022-07-29T02:23:19;94616.91;;;16.32;100.00
43553;BME280;29153;42.696;23.218;2022-07-29T02:25:54;94613.81;;;16.38;100.00
43553;BME280;29153;42.696;23.218;2022-07-29T02:28:18;94610.19;;;16.43;100.00
43553;BME280;29153;42.696;23.218;2022-07-29T02:30:47;94614.36;;;16.38;100.00
43553;BME280;29153;42.696;23.218;2022-07-29T02:33:17;94609.97;;;16.42;100.00
43553;BME280;29153;42.696;23.218;2022-07-29T02:35:46;94605.88;;;16.45;100.00
43553;BME280;29153;42.696;23.218;2022-07-29T02:38:18;94602.58;;;16.48;100.00
43553;BME280;29153;42.696;23.218;2022-07-29T02:41:13;94608.05;;;16.54;100.00
43553;BME280;29153;42.696;23.218;2022-07-29T02:43:43;94594.51;;;16.50;100.00
43553;BME280;29153;42.696;23.218;2022-07-29T02:46:19;94596.09;;;16.51;100.00
43553;BME280;29153;42.696;23.218;2022-07-29T02:48:48;94603.19;;;16.56;100.00
43553;BME280;29153;42.696;23.218;2022-07-29T02:51:25;94602.84;;;16.60;100.00
43553;BME280;29153;42.696;23.218;2022-07-29T02:53:54;94598.45;;;16.64;100.00
43553;BME280;29153;42.696;23.218;2022-07-29T02:56:27;94589.94;;;16.62;100.00
43553;BME280;29153;42.696;23.218;2022-07-29T02:59:07;94590.27;;;16.69;100.00
43553;BME280;29153;42.696;23.218;2022-07-29T03:01:33;94594.53;;;16.70;100.00
43553;BME280;29153;42.696;23.218;2022-07-29T03:11:50;94597.66;;;16.63;100.00
43553;BME280;29153;42.696;23.218;2022-07-29T03:14:25;94607.50;;;16.54;100.00
43553;BME280;29153;42.696;23.218;2022-07-29T03:16:49;94614.81;;;16.51;100.00
43553;BME280;29153;42.696;23.218;2022-07-29T03:19:20;94617.86;;;16.47;100.00
43553;BME280;29153;42.696;23.218;2022-07-29T03:21:47;94615.66;;;16.49;100.00
43553;BME280;29153;42.696;23.218;2022-07-29T03:24:31;94613.19;;;16.42;100.00
43553;BME280;29153;42.696;23.218;2022-07-29T03:26:56;94616.48;;;16.38;100.00
43553;BME280;29153;42.696;23.218;2022-07-29T03:29:29;94616.23;;;16.37;100.00
43553;BME280;29153;42.696;23.218;2022-07-29T03:31:53;94619.63;;;16.40;100.00
43553;BME280;29153;42.696;23.218;2022-07-29T03:34:21;94619.20;;;16.36;100.00
43553;BME280;29153;42.696;23.218;2022-07-29T03:37:04;94623.05;;;16.32;100.00
43553;BME280;29153;42.696;23.218;2022-07-29T03:39:38;94621.58;;;16.26;100.00
43553;BME280;29153;42.696;23.218;2022-07-29T03:42:08;94624.92;;;16.32;100.00
43553;BME280;29153;42.696;23.218;2022-07-29T03:44:37;94625.97;;;16.33;100.00
43553;BME280;29153;42.696;23.218;2022-07-29T03:47:11;94628.27;;;16.37;100.00
43553;BME280;29153;42.696;23.218;2022-07-29T03:55:43;94622.80;;;16.43;100.00
43553;BME280;29153;42.696;23.218;2022-07-29T03:58:13;94621.55;;;16.49;100.00
43553;BME280;29153;42.696;23.218;2022-07-29T04:00:44;94625.43;;;16.54;100.00
43553;BME280;29153;42.696;23.218;2022-07-29T04:03:13;94625.13;;;16.55;100.00
43553;BME280;29153;42.696;23.218;2022-07-29T04:05:43;94627.80;;;16.66;100.00
43553;BME280;29153;42.696;23.218;2022-07-29T04:08:11;94628.55;;;16.78;100.00
43553;BME280;29153;42.696;23.218;2022-07-29T04:10:56;94613.03;;;16.77;99.66
43553;BME280;29153;42.696;23.218;2022-07-29T04:13:10;94627.70;;;16.80;99.82
43553;BME280;29153;42.696;23.218;2022-07-29T04:15:44;94627.21;;;16.98;100.00
43553;BME280;29153;42.696;23.218;2022-07-29T04:18:10;94614.42;;;17.14;99.63
43553;BME280;29153;42.696;23.218;2022-07-29T04:20:55;94624.05;;;17.24;98.95
43553;BME280;29153;42.696;23.218;2022-07-29T04:23:37;94629.42;;;17.33;98.64
43553;BME280;29153;42.696;23.218;2022-07-29T04:26:09;94627.31;;;17.41;98.12
43553;BME280;29153;42.696;23.218;2022-07-29T04:31:41;94630.16;;;17.53;97.49
43553;BME280;29153;42.696;23.218;2022-07-29T04:34:32;94620.38;;;17.57;97.20
43553;BME280;29153;42.696;23.218;2022-07-29T04:36:54;94633.72;;;17.68;96.82
43553;BME280;29153;42.696;23.218;2022-07-29T04:39:30;94633.67;;;17.79;96.20
43553;BME280;29153;42.696;23.218;2022-07-29T04:42:02;94639.81;;;17.88;95.73
43553;BME280;29153;42.696;23.218;2022-07-29T04:47:48;94639.48;;;17.98;95.40
43553;BME280;29153;42.696;23.218;2022-07-29T04:50:37;94644.67;;;18.12;94.76
43553;BME280;29153;42.696;23.218;2022-07-29T04:53:20;94639.30;;;18.20;94.34
43553;BME280;29153;42.696;23.218;2022-07-29T04:58:23;94649.69;;;18.39;93.68
43553;BME280;29153;42.696;23.218;2022-07-29T05:00:52;94652.11;;;18.47;93.60
43553;BME280;29153;42.696;23.218;2022-07-29T05:03:24;94651.57;;;18.56;93.58
43553;BME280;29153;42.696;23.218;2022-07-29T05:06:00;94654.38;;;18.68;93.69
43553;BME280;29153;42.696;23.218;2022-07-29T05:08:36;94648.19;;;18.76;94.35
43553;BME280;29153;42.696;23.218;2022-07-29T05:11:04;94652.88;;;18.88;94.55
43553;BME280;29153;42.696;23.218;2022-07-29T05:13:34;94655.77;;;18.97;94.70
43553;BME280;29153;42.696;23.218;2022-07-29T05:16:02;94654.09;;;19.14;94.02
43553;BME280;29153;42.696;23.218;2022-07-29T05:18:31;94647.72;;;19.27;92.61
43553;BME280;29153;42.696;23.218;2022-07-29T05:21:05;94653.72;;;19.38;90.69
43553;BME280;29153;42.696;23.218;2022-07-29T05:23:35;94659.80;;;19.50;89.80
43553;BME280;29153;42.696;23.218;2022-07-29T05:26:02;94650.94;;;19.49;88.60
43553;BME280;29153;42.696;23.218;2022-07-29T05:28:37;94658.77;;;19.63;88.42
43553;BME280;29153;42.696;23.218;2022-07-29T05:31:09;94657.86;;;19.65;88.52
43553;BME280;29153;42.696;23.218;2022-07-29T05:33:42;94656.33;;;19.70;88.08
43553;BME280;29153;42.696;23.218;2022-07-29T05:36:19;94659.75;;;19.79;88.37
43553;BME280;29153;42.696;23.218;2022-07-29T05:38:58;94660.19;;;19.81;87.84
43553;BME280;29153;42.696;23.218;2022-07-29T05:41:25;94660.78;;;19.66;86.35
43553;BME280;29153;42.696;23.218;2022-07-29T05:44:03;94666.21;;;19.72;86.84
43553;BME280;29153;42.696;23.218;2022-07-29T05:55:17;94670.63;;;20.04;87.11
43553;BME280;29153;42.696;23.218;2022-07-29T05:57:44;94671.22;;;20.09;85.89
43553;BME280;29153;42.696;23.218;2022-07-29T06:00:12;94670.90;;;20.11;84.98
43553;BME280;29153;42.696;23.218;2022-07-29T06:02:58;94669.33;;;20.16;84.26
43553;BME280;29153;42.696;23.218;2022-07-29T06:05:16;94668.09;;;20.34;85.02
43553;BME280;29153;42.696;23.218;2022-07-29T06:07:50;94667.42;;;20.31;83.78
43553;BME280;29153;42.696;23.218;2022-07-29T06:10:17;94673.95;;;20.42;83.64
43553;BME280;29153;42.696;23.218;2022-07-29T06:12:49;94671.38;;;20.45;83.12
43553;BME280;29153;42.696;23.218;2022-07-29T06:15:16;94677.06;;;20.65;84.09
43553;BME280;29153;42.696;23.218;2022-07-29T06:17:50;94678.08;;;20.66;82.56
43553;BME280;29153;42.696;23.218;2022-07-29T06:20:18;94671.38;;;20.78;82.62
43553;BME280;29153;42.696;23.218;2022-07-29T06:22:44;94668.79;;;20.88;82.78
43553;BME280;29153;42.696;23.218;2022-07-29T06:25:17;94671.29;;;20.99;82.48
43553;BME280;29153;42.696;23.218;2022-07-29T06:27:46;94674.55;;;20.99;80.98
43553;BME280;29153;42.696;23.218;2022-07-29T06:32:46;94670.95;;;20.95;82.34
43553;BME280;29153;42.696;23.218;2022-07-29T06:35:23;94670.61;;;21.02;81.48
43553;BME280;29153;42.696;23.218;2022-07-29T06:37:47;94674.83;;;21.30;82.83
43553;BME280;29153;42.696;23.218;2022-07-29T06:40:22;94667.73;;;21.44;79.01
43553;BME280;29153;42.696;23.218;2022-07-29T06:43:13;94667.14;;;21.74;80.70
43553;BME280;29153;42.696;23.218;2022-07-29T06:45:38;94663.30;;;21.88;78.35
43553;BME280;29153;42.696;23.218;2022-07-29T06:48:07;94668.48;;;21.93;76.82
43553;BME280;29153;42.696;23.218;2022-07-29T06:50:39;94666.45;;;21.90;76.21
43553;BME280;29153;42.696;23.218;2022-07-29T06:53:06;94664.30;;;22.01;77.63
43553;BME280;29153;42.696;23.218;2022-07-29T06:55:34;94667.33;;;22.06;75.79
43553;BME280;29153;42.696;23.218;2022-07-29T06:58:13;94662.81;;;22.16;76.68
43553;BME280;29153;42.696;23.218;2022-07-29T07:00:48;94668.16;;;22.28;75.97
43553;BME280;29153;42.696;23.218;2022-07-29T07:05:57;94659.19;;;22.18;75.39
43553;BME280;29153;42.696;23.218;2022-07-29T07:08:33;94655.18;;;22.12;75.73
43553;BME280;29153;42.696;23.218;2022-07-29T07:10:57;94656.16;;;22.13;76.88
43553;BME280;29153;42.696;23.218;2022-07-29T07:13:30;94653.97;;;22.31;76.45
43553;BME280;29153;42.696;23.218;2022-07-29T07:15:55;94654.84;;;22.35;75.62
43553;BME280;29153;42.696;23.218;2022-07-29T07:18:26;94656.82;;;22.50;75.89
43553;BME280;29153;42.696;23.218;2022-07-29T07:20:53;94658.34;;;22.57;71.95
43553;BME280;29153;42.696;23.218;2022-07-29T07:23:24;94659.16;;;22.80;70.55
43553;BME280;29153;42.696;23.218;2022-07-29T07:25:59;94658.29;;;23.07;69.91
43553;BME280;29153;42.696;23.218;2022-07-29T07:28:34;94657.13;;;23.14;67.69
43553;BME280;29153;42.696;23.218;2022-07-29T07:31:06;94661.21;;;23.39;67.05
43553;BME280;29153;42.696;23.218;2022-07-29T07:33:35;94651.28;;;23.69;67.14
43553;BME280;29153;42.696;23.218;2022-07-29T07:36:02;94657.58;;;23.92;65.86
43553;BME280;29153;42.696;23.218;2022-07-29T07:38:32;94656.95;;;23.98;63.65
43553;BME280;29153;42.696;23.218;2022-07-29T07:41:00;94664.70;;;24.25;64.43
43553;BME280;29153;42.696;23.218;2022-07-29T07:43:30;94665.19;;;24.60;61.84
43553;BME280;29153;42.696;23.218;2022-07-29T07:46:03;94660.45;;;24.76;59.45
43553;BME280;29153;42.696;23.218;2022-07-29T07:48:31;94654.66;;;25.19;62.89
43553;BME280;29153;42.696;23.218;2022-07-29T07:51:01;94647.88;;;25.68;60.62
43553;BME280;29153;42.696;23.218;2022-07-29T07:53:28;94646.70;;;26.09;56.12
43553;BME280;29153;42.696;23.218;2022-07-29T07:55:58;94645.28;;;26.48;56.47
43553;BME280;29153;42.696;23.218;2022-07-29T07:58:42;94644.91;;;27.03;57.47
43553;BME280;29153;42.696;23.218;2022-07-29T08:01:09;94646.73;;;27.36;54.22
43553;BME280;29153;42.696;23.218;2022-07-29T08:03:37;94644.59;;;27.90;54.02
43553;BME280;29153;42.696;23.218;2022-07-29T08:06:10;94648.55;;;27.69;52.17
43553;BME280;29153;42.696;23.218;2022-07-29T08:08:36;94646.83;;;28.05;54.66
43553;BME280;29153;42.696;23.218;2022-07-29T08:11:03;94644.11;;;28.46;54.26
43553;BME280;29153;42.696;23.218;2022-07-29T08:13:43;94642.73;;;28.99;51.87
43553;BME280;29153;42.696;23.218;2022-07-29T08:16:04;94635.18;;;29.55;51.04
43553;BME280;29153;42.696;23.218;2022-07-29T08:21:18;94645.87;;;29.96;49.65
43553;BME280;29153;42.696;23.218;2022-07-29T08:23:45;94645.69;;;29.99;47.71
43553;BME280;29153;42.696;23.218;2022-07-29T08:26:15;94650.08;;;30.25;47.08
43553;BME280;29153;42.696;23.218;2022-07-29T08:28:44;94650.42;;;30.38;47.33
43553;BME280;29153;42.696;23.218;2022-07-29T08:31:14;94645.02;;;30.74;45.67
43553;BME280;29153;42.696;23.218;2022-07-29T08:33:43;94644.67;;;30.65;44.31
43553;BME280;29153;42.696;23.218;2022-07-29T08:36:10;94642.39;;;30.53;42.33
43553;BME280;29153;42.696;23.218;2022-07-29T08:38:44;94644.02;;;30.26;43.69
43553;BME280;29153;42.696;23.218;2022-07-29T08:41:14;94634.19;;;30.53;46.89
43553;BME280;29153;42.696;23.218;2022-07-29T08:43:43;94639.06;;;30.90;46.46
43553;BME280;29153;42.696;23.218;2022-07-29T08:46:11;94636.42;;;30.72;44.55
43553;BME280;29153;42.696;23.218;2022-07-29T08:48:39;94630.37;;;30.73;44.38
43553;BME280;29153;42.696;23.218;2022-07-29T08:51:16;94633.52;;;30.71;42.21
43553;BME280;29153;42.696;23.218;2022-07-29T08:53:49;94631.20;;;31.06;43.43
43553;BME280;29153;42.696;23.218;2022-07-29T08:56:18;94626.92;;;31.02;43.11
43553;BME280;29153;42.696;23.218;2022-07-29T08:58:51;94624.58;;;30.97;43.02
43553;BME280;29153;42.696;23.218;2022-07-29T09:01:23;94626.28;;;31.09;42.07
43553;BME280;29153;42.696;23.218;2022-07-29T09:03:55;94618.09;;;30.99;41.54
43553;BME280;29153;42.696;23.218;2022-07-29T09:06:22;94621.45;;;31.24;43.09
43553;BME280;29153;42.696;23.218;2022-07-29T09:08:52;94623.79;;;31.51;42.82
43553;BME280;29153;42.696;23.218;2022-07-29T09:11:24;94616.81;;;31.69;43.33
43553;BME280;29153;42.696;23.218;2022-07-29T09:13:52;94616.77;;;31.73;41.58
43553;BME280;29153;42.696;23.218;2022-07-29T09:16:20;94614.70;;;31.65;42.15
43553;BME280;29153;42.696;23.218;2022-07-29T09:18:48;94618.31;;;31.96;43.05
43553;BME280;29153;42.696;23.218;2022-07-29T09:21:17;94617.26;;;32.01;39.80
43553;BME280;29153;42.696;23.218;2022-07-29T09:24:14;94620.14;;;32.06;39.32
43553;BME280;29153;42.696;23.218;2022-07-29T09:26:44;94612.45;;;31.49;40.44
43553;BME280;29153;42.696;23.218;2022-07-29T09:29:17;94610.25;;;31.08;40.16
43553;BME280;29153;42.696;23.218;2022-07-29T09:31:49;94613.11;;;31.42;44.45
43553;BME280;29153;42.696;23.218;2022-07-29T09:34:22;94612.44;;;31.56;42.40
43553;BME280;29153;42.696;23.218;2022-07-29T09:36:51;94611.92;;;31.69;40.90
43553;BME280;29153;42.696;23.218;2022-07-29T09:39:29;94613.18;;;31.60;40.66
43553;BME280;29153;42.696;23.218;2022-07-29T09:41:59;94607.08;;;31.65;39.22
43553;BME280;29153;42.696;23.218;2022-07-29T09:44:48;94604.23;;;31.49;38.55
43553;BME280;29153;42.696;23.218;2022-07-29T09:47:17;94602.53;;;31.70;39.44
43553;BME280;29153;42.696;23.218;2022-07-29T09:49:55;94601.52;;;31.24;39.35
43553;BME280;29153;42.696;23.218;2022-07-29T09:52:27;94597.84;;;31.44;41.93
43553;BME280;29153;42.696;23.218;2022-07-29T09:55:10;94594.75;;;31.65;43.14
43553;BME280;29153;42.696;23.218;2022-07-29T09:57:34;94589.97;;;31.72;42.33
43553;BME280;29153;42.696;23.218;2022-07-29T10:00:04;94592.27;;;31.77;40.96
43553;BME280;29153;42.696;23.218;2022-07-29T10:02:34;94580.45;;;31.84;43.00
43553;BME280;29153;42.696;23.218;2022-07-29T10:05:05;94580.05;;;31.85;41.61
43553;BME280;29153;42.696;23.218;2022-07-29T10:10:33;94580.58;;;31.92;38.89
43553;BME280;29153;42.696;23.218;2022-07-29T10:12:59;94578.87;;;31.86;38.56
43553;BME280;29153;42.696;23.218;2022-07-29T10:15:30;94570.75;;;31.76;38.21
43553;BME280;29153;42.696;23.218;2022-07-29T10:17:59;94568.24;;;31.73;39.70
43553;BME280;29153;42.696;23.218;2022-07-29T10:20:27;94568.38;;;31.59;39.36
43553;BME280;29153;42.696;23.218;2022-07-29T10:22:55;94565.34;;;31.46;37.86
43553;BME280;29153;42.696;23.218;2022-07-29T10:25:23;94562.20;;;31.48;37.92
43553;BME280;29153;42.696;23.218;2022-07-29T10:27:52;94557.91;;;31.25;45.16
43553;BME280;29153;42.696;23.218;2022-07-29T10:30:21;94555.73;;;31.05;39.48
43553;BME280;29153;42.696;23.218;2022-07-29T10:38:34;94544.45;;;31.44;42.11
43553;BME280;29153;42.696;23.218;2022-07-29T10:44:03;94541.38;;;31.61;39.63
43553;BME280;29153;42.696;23.218;2022-07-29T10:46:36;94538.80;;;31.81;40.29
43553;BME280;29153;42.696;23.218;2022-07-29T10:52:08;94537.18;;;32.02;41.39
43553;BME280;29153;42.696;23.218;2022-07-29T10:54:45;94526.36;;;31.91;39.21
43553;BME280;29153;42.696;23.218;2022-07-29T11:05:12;94514.45;;;32.35;40.33
43553;BME280;29153;42.696;23.218;2022-07-29T11:08:26;94511.97;;;32.18;36.45
43553;BME280;29153;42.696;23.218;2022-07-29T11:15:15;94506.94;;;32.13;40.23
43553;BME280;29153;42.696;23.218;2022-07-29T11:20:48;94503.40;;;32.42;38.79
43553;BME280;29153;42.696;23.218;2022-07-29T11:23:29;94499.34;;;32.39;38.02
43553;BME280;29153;42.696;23.218;2022-07-29T11:26:17;94500.12;;;32.24;35.88
43553;BME280;29153;42.696;23.218;2022-07-29T11:29:06;94500.09;;;32.13;36.84
43553;BME280;29153;42.696;23.218;2022-07-29T11:31:38;94483.84;;;31.95;35.57
43553;BME280;29153;42.696;23.218;2022-07-29T11:34:32;94495.97;;;31.94;37.41
43553;BME280;29153;42.696;23.218;2022-07-29T11:45:00;94487.55;;;32.53;37.78
43553;BME280;29153;42.696;23.218;2022-07-29T11:47:29;94480.70;;;32.69;38.89
43553;BME280;29153;42.696;23.218;2022-07-29T11:49:59;94483.16;;;32.60;37.68
43553;BME280;29153;42.696;23.218;2022-07-29T11:52:42;94479.64;;;32.59;36.62
43553;BME280;29153;42.696;23.218;2022-07-29T11:55:15;94468.13;;;32.14;38.33
43553;BME280;29153;42.696;23.218;2022-07-29T11:57:51;94469.98;;;32.05;38.75
43553;BME280;29153;42.696;23.218;2022-07-29T12:02:58;94475.93;;;32.58;38.44
43553;BME280;29153;42.696;23.218;2022-07-29T12:05:39;94475.93;;;32.58;37.63
43553;BME280;29153;42.696;23.218;2022-07-29T12:08:07;94469.23;;;32.62;36.12
43553;BME280;29153;42.696;23.218;2022-07-29T12:10:36;94465.48;;;32.64;35.67
43553;BME280;29153;42.696;23.218;2022-07-29T12:13:04;94470.97;;;32.61;35.59
43553;BME280;29153;42.696;23.218;2022-07-29T12:15:33;94468.01;;;32.51;36.09
43553;BME280;29153;42.696;23.218;2022-07-29T12:18:13;94468.03;;;32.48;36.40
43553;BME280;29153;42.696;23.218;2022-07-29T12:20:33;94461.75;;;32.36;37.22
43553;BME280;29153;42.696;23.218;2022-07-29T12:23:04;94465.30;;;32.63;37.42
43553;BME280;29153;42.696;23.218;2022-07-29T12:25:33;94464.36;;;32.58;37.19
43553;BME280;29153;42.696;23.218;2022-07-29T12:28:04;94469.60;;;32.64;35.20
43553;BME280;29153;42.696;23.218;2022-07-29T12:30:44;94462.63;;;32.83;36.19
43553;BME280;29153;42.696;23.218;2022-07-29T12:33:21;94462.03;;;32.72;34.50
43553;BME280;29153;42.696;23.218;2022-07-29T12:36:01;94456.73;;;32.73;35.90
43553;BME280;29153;42.696;23.218;2022-07-29T12:38:25;94448.25;;;32.64;35.98
43553;BME280;29153;42.696;23.218;2022-07-29T12:40:53;94448.69;;;32.59;35.44
43553;BME280;29153;42.696;23.218;2022-07-29T12:43:23;94445.03;;;32.69;35.98
43553;BME280;29153;42.696;23.218;2022-07-29T12:45:53;94451.05;;;32.45;34.67
43553;BME280;29153;42.696;23.218;2022-07-29T12:48:38;94439.94;;;32.40;36.53
43553;BME280;29153;42.696;23.218;2022-07-29T12:51:07;94440.39;;;32.50;35.98
43553;BME280;29153;42.696;23.218;2022-07-29T12:53:36;94437.85;;;32.36;36.29
43553;BME280;29153;42.696;23.218;2022-07-29T12:56:04;94438.95;;;32.54;35.94
43553;BME280;29153;42.696;23.218;2022-07-29T12:58:37;94435.56;;;32.58;35.78
43553;BME280;29153;42.696;23.218;2022-07-29T13:01:08;94430.26;;;32.59;35.78
43553;BME280;29153;42.696;23.218;2022-07-29T13:03:45;94425.52;;;32.63;37.26
43553;BME280;29153;42.696;23.218;2022-07-29T13:09:14;94424.34;;;32.22;35.50
43553;BME280;29153;42.696;23.218;2022-07-29T13:11:44;94423.08;;;32.30;34.68
43553;BME280;29153;42.696;23.218;2022-07-29T13:14:14;94416.41;;;32.43;37.18
43553;BME280;29153;42.696;23.218;2022-07-29T13:17:02;94417.66;;;32.38;34.09
43553;BME280;29153;42.696;23.218;2022-07-29T13:19:38;94412.70;;;32.41;36.64
43553;BME280;29153;42.696;23.218;2022-07-29T13:22:09;94410.50;;;32.44;35.06
43553;BME280;29153;42.696;23.218;2022-07-29T13:24:54;94412.20;;;32.35;34.73
43553;BME280;29153;42.696;23.218;2022-07-29T13:27:27;94416.17;;;32.19;35.22
43553;BME280;29153;42.696;23.218;2022-07-29T13:29:56;94409.67;;;32.09;35.47
43553;BME280;29153;42.696;23.218;2022-07-29T13:32:26;94405.45;;;32.16;34.52
43553;BME280;29153;42.696;23.218;2022-07-29T13:34:59;94396.91;;;32.11;34.42
43553;BME280;29153;42.696;23.218;2022-07-29T13:37:23;94394.02;;;32.21;35.15
43553;BME280;29153;42.696;23.218;2022-07-29T13:39:52;94385.17;;;32.10;36.14
43553;BME280;29153;42.696;23.218;2022-07-29T13:42:21;94390.36;;;32.01;34.69
43553;BME280;29153;42.696;23.218;2022-07-29T13:44:49;94394.20;;;32.07;34.76
43553;BME280;29153;42.696;23.218;2022-07-29T13:47:21;94397.56;;;31.91;34.51
43553;BME280;29153;42.696;23.218;2022-07-29T13:49:49;94389.82;;;31.98;34.83
43553;BME280;29153;42.696;23.218;2022-07-29T13:52:17;94385.01;;;32.09;35.42
43553;BME280;29153;42.696;23.218;2022-07-29T13:54:45;94385.15;;;31.83;33.75
43553;BME280;29153;42.696;23.218;2022-07-29T13:57:13;94383.62;;;31.94;34.31
43553;BME280;29153;42.696;23.218;2022-07-29T13:59:41;94381.55;;;32.01;36.61
43553;BME280;29153;42.696;23.218;2022-07-29T14:02:11;94395.36;;;31.94;36.88
43553;BME280;29153;42.696;23.218;2022-07-29T14:04:41;94394.84;;;32.03;36.43
43553;BME280;29153;42.696;23.218;2022-07-29T14:07:08;94396.33;;;31.96;34.96
43553;BME280;29153;42.696;23.218;2022-07-29T14:09:36;94392.05;;;32.06;35.17
43553;BME280;29153;42.696;23.218;2022-07-29T14:12:04;94392.94;;;32.00;36.38
43553;BME280;29153;42.696;23.218;2022-07-29T14:14:31;94390.63;;;31.83;34.86
43553;BME280;29153;42.696;23.218;2022-07-29T14:16:59;94390.20;;;31.54;35.38
43553;BME280;29153;42.696;23.218;2022-07-29T14:19:29;94395.11;;;31.36;36.31
43553;BME280;29153;42.696;23.218;2022-07-29T14:22:03;94386.45;;;31.04;35.94
43553;BME280;29153;42.696;23.218;2022-07-29T14:24:29;94388.75;;;31.09;37.21
43553;BME280;29153;42.696;23.218;2022-07-29T14:27:00;94392.42;;;30.92;37.29
43553;BME280;29153;42.696;23.218;2022-07-29T14:29:36;94396.22;;;30.83;36.43
43553;BME280;29153;42.696;23.218;2022-07-29T14:32:03;94394.14;;;30.94;36.62
43553;BME280;29153;42.696;23.218;2022-07-29T14:34:36;94392.90;;;31.05;35.67
43553;BME280;29153;42.696;23.218;2022-07-29T14:37:05;94392.97;;;31.17;35.88
43553;BME280;29153;42.696;23.218;2022-07-29T14:39:33;94391.89;;;31.41;35.91
43553;BME280;29153;42.696;23.218;2022-07-29T14:42:02;94391.36;;;31.57;36.47
43553;BME280;29153;42.696;23.218;2022-07-29T14:44:37;94388.97;;;31.59;34.68